Time;durP1;ratioP1;P1;durP2;ratioP2;P2;SDS_P1;SDS_P2;PMS_P1;PMS_P2;Temp;Humidity;BMP_temperature;BMP_pressure;BME280_temperature;BME280_humidity;BME280_pressure;Samples;Min_cycle;Max_cycle;Signal;HPM_P1;HPM_P2
2023/12/13 00:00:19;;;;;;;18.42;9.80;;;;;;;;;;5000028;28;20073;-71
2023/12/13 00:02:45;;;;;;;18.83;9.70;;;;;;;;;;4981383;28;20378;-71
2023/12/13 00:05:11;;;;;;;20.27;10.20;;;;;;;;;;4984797;28;20057;-71
2023/12/13 00:07:37;;;;;;;20.35;9.63;;;;;;;;;;4983600;28;20153;-71
2023/12/13 00:10:04;;;;;;;23.55;11.45;;;;;;;;;;4981665;28;20041;-71
2023/12/13 00:12:30;;;;;;;22.73;11.25;;;;;;;;;;4999644;28;20046;-71
2023/12/13 00:14:56;;;;;;;22.58;10.50;;;;;;;;;;4980132;28;20069;-71
2023/12/13 00:17:22;;;;;;;19.90;10.05;;;;;;;;;;4984271;28;20065;-71
2023/12/13 00:19:48;;;;;;;20.73;11.13;;;;;;;;;;4984084;28;20141;-71
2023/12/13 00:22:14;;;;;;;20.92;11.50;;;;;;;;;;4984527;28;20137;-71
2023/12/13 00:24:39;;;;;;;21.42;11.38;;;8.40;99.90;;;;;;4984749;28;20050;-71
2023/12/13 00:27:06;;;;;;;22.52;11.65;;;;;;;;;;4977816;28;20057;-71
2023/12/13 00:29:32;;;;;;;24.30;10.88;;;;;;;;;;4984102;28;20054;-72
2023/12/13 00:31:58;;;;;;;24.58;11.15;;;;;;;;;;4985592;28;20046;-71
2023/12/13 00:34:24;;;;;;;22.42;11.63;;;;;;;;;;4984880;28;20145;-71
2023/12/13 00:36:50;;;;;;;26.27;11.05;;;;;;;;;;4983626;28;20461;-71
2023/12/13 00:39:16;;;;;;;19.83;9.80;;;;;;;;;;4976461;28;20130;-71
2023/12/13 00:41:42;;;;;;;22.13;11.57;;;;;;;;;;4984513;28;20145;-71
2023/12/13 00:44:08;;;;;;;25.02;11.90;;;;;;;;;;4984161;28;20061;-70
2023/12/13 00:46:34;;;;;;;21.85;11.18;;;;;;;;;;4984224;28;20046;-71
2023/12/13 00:49:00;;;;;;;18.73;10.40;;;;;;;;;;4985523;28;20034;-71
2023/12/13 00:51:26;;;;;;;21.38;11.25;;;;;;;;;;4984413;28;20034;-71
2023/12/13 00:53:52;;;;;;;25.90;12.40;;;;;;;;;;4984913;28;20061;-71
2023/12/13 00:56:18;;;;;;;26.58;12.60;;;;;;;;;;4984196;28;20104;-71
2023/12/13 00:58:47;;;;;;;28.45;12.35;;;;;;;;;;4981348;28;20051;-71
2023/12/13 01:01:14;;;;;;;25.48;12.43;;;;;;;;;;4981676;28;20141;-71
2023/12/13 01:03:40;;;;;;;26.63;12.35;;;;;;;;;;4985928;28;20466;-71
2023/12/13 01:06:09;;;;;;;26.77;13.27;;;;;;;;;;4982021;28;20050;-71
2023/12/13 01:08:38;;;;;;;23.48;12.65;;;;;;;;;;4981609;28;20038;-71
2023/12/13 01:11:11;;;;;;;27.52;13.13;;;;;;;;;;4984219;28;20057;-71
2023/12/13 01:13:37;;;;;;;27.10;14.35;;;;;;;;;;4980358;28;20145;-72
2023/12/13 01:16:04;;;;;;;29.35;13.27;;;;;;;;;;5000983;28;20057;-71
2023/12/13 01:18:30;;;;;;;28.85;13.90;;;;;;;;;;4986778;28;20049;-71
2023/12/13 01:20:56;;;;;;;30.48;14.73;;;;;;;;;;4987167;28;20077;-71
2023/12/13 01:23:22;;;;;;;32.60;15.02;;;;;;;;;;4986637;28;20134;-71
2023/12/13 01:25:48;;;;;;;31.95;14.80;;;;;;;;;;5004705;28;20093;-71
2023/12/13 01:28:14;;;;;;;32.33;15.50;;;;;;;;;;4986914;28;20084;-71
2023/12/13 01:30:40;;;;;;;33.33;15.23;;;;;;;;;;4984806;28;20077;-71
2023/12/13 01:33:06;;;;;;;32.03;17.00;;;;;;;;;;4985467;28;20707;-71
2023/12/13 01:35:32;;;;;;;30.80;15.50;;;;;;;;;;4984840;28;20141;-71
2023/12/13 01:37:58;;;;;;;37.75;16.60;;;;;;;;;;4983485;28;20050;-71
2023/12/13 01:40:24;;;;;;;34.30;17.27;;;;;;;;;;4980768;28;20062;-71
2023/12/13 01:42:50;;;;;;;34.08;16.63;;;;;;;;;;4986400;28;20576;-71
2023/12/13 01:45:16;;;;;;;36.72;16.98;;;;;;;;;;4979755;28;20129;-71
2023/12/13 01:47:42;;;;;;;32.20;16.35;;;;;;;;;;5004149;28;20076;-71
2023/12/13 01:50:08;;;;;;;32.85;16.65;;;;;;;;;;4986369;28;20560;-70
2023/12/13 01:52:34;;;;;;;33.13;15.43;;;;;;;;;;4999826;28;20074;-71
2023/12/13 01:55:01;;;;;;;34.83;16.73;;;;;;;;;;4986237;28;20069;-71
2023/12/13 01:57:27;;;;;;;35.03;16.73;;;;;;;;;;4985381;28;20057;-71
2023/12/13 01:59:53;;;;;;;29.95;15.45;;;;;;;;;;4986061;28;20050;-71
2023/12/13 02:02:19;;;;;;;28.80;15.15;;;;;;;;;;4985890;28;20405;-71
2023/12/13 02:04:47;;;;;;;35.03;15.98;;;8.30;99.90;;;;;;5000977;28;20050;-71
2023/12/13 02:07:13;;;;;;;30.70;15.30;;;;;;;;;;4985792;28;20050;-71
2023/12/13 02:09:39;;;;;;;30.70;14.77;;;;;;;;;;5002866;28;20116;-71
2023/12/13 02:12:06;;;;;;;33.22;14.88;;;;;;;;;;4984591;28;20052;-71
2023/12/13 02:14:32;;;;;;;27.75;14.15;;;;;;;;;;5001125;28;20065;-71
2023/12/13 02:16:58;;;;;;;28.00;12.95;;;;;;;;;;5001023;28;20480;-71
2023/12/13 02:19:24;;;;;;;26.20;13.85;;;;;;;;;;5003847;28;20042;-71
2023/12/13 02:21:50;;;;;;;26.92;13.32;;;;;;;;;;4986001;28;20115;-71
2023/12/13 02:24:18;;;;;;;25.00;12.43;;;;;;;;;;4985404;28;20497;-71
2023/12/13 02:26:45;;;;;;;28.00;12.75;;;;;;;;;;4984542;28;20136;-71
2023/12/13 02:29:12;;;;;;;25.10;12.38;;;;;;;;;;4985447;28;20128;-71
2023/12/13 02:31:39;;;;;;;25.35;12.23;;;;;;;;;;4985901;28;20045;-71
2023/12/13 02:34:05;;;;;;;24.60;12.75;;;;;;;;;;4999559;28;20042;-71
2023/12/13 02:36:31;;;;;;;27.35;11.65;;;;;;;;;;4982598;28;20528;-70
2023/12/13 02:38:57;;;;;;;24.30;12.60;;;;;;;;;;4985339;28;20046;-71
2023/12/13 02:41:23;;;;;;;26.02;12.77;;;;;;;;;;4985806;28;20042;-71
2023/12/13 02:43:49;;;;;;;23.75;13.02;;;;;;;;;;4985706;28;20127;-71
2023/12/13 02:46:15;;;;;;;23.50;11.15;;;;;;;;;;4985497;28;20050;-71
2023/12/13 02:48:41;;;;;;;21.17;11.95;;;;;;;;;;4985260;28;20093;-71
2023/12/13 02:51:08;;;;;;;27.52;13.55;;;;;;;;;;5003448;28;20124;-71
2023/12/13 02:53:34;;;;;;;19.73;11.50;;;;;;;;;;4985379;28;20537;-71
2023/12/13 02:56:00;;;;;;;20.55;12.27;;;;;;;;;;4985146;28;20483;-71
2023/12/13 02:58:26;;;;;;;23.25;12.02;;;;;;;;;;4984566;28;20056;-71
2023/12/13 03:00:52;;;;;;;20.45;11.48;;;;;;;;;;4984898;28;20156;-71
2023/12/13 03:03:19;;;;;;;21.88;11.52;;;;;;;;;;4984631;28;20092;-71
2023/12/13 03:05:45;;;;;;;22.08;12.05;;;;;;;;;;5002775;28;20046;-71
2023/12/13 03:08:11;;;;;;;22.50;12.70;;;;;;;;;;5002825;28;20156;-71
2023/12/13 03:10:37;;;;;;;19.33;11.45;;;;;;;;;;4968040;28;20116;-71
2023/12/13 03:13:03;;;;;;;24.27;13.13;;;;;;;;;;4985004;28;20096;-71
2023/12/13 03:15:29;;;;;;;24.17;12.50;;;;;;;;;;4985156;28;20699;-71
2023/12/13 03:17:55;;;;;;;26.33;12.95;;;;;;;;;;5003054;28;20042;-71
2023/12/13 03:20:20;;;;;;;20.98;12.85;;;8.50;99.90;;;;;;4985369;28;20034;-71
2023/12/13 03:22:46;;;;;;;24.55;13.52;;;;;;;;;;5002788;28;20595;-71
2023/12/13 03:25:12;;;;;;;23.88;13.23;;;;;;;;;;4984692;28;20045;-71
2023/12/13 03:27:42;;;;;;;20.77;13.25;;;;;;;;;;4983992;28;20405;-71
2023/12/13 03:30:08;;;;;;;24.40;12.95;;;8.30;99.90;;;;;;5000939;28;20509;-71
2023/12/13 03:32:34;;;;;;;21.63;12.90;;;;;;;;;;4981586;28;20173;-71
2023/12/13 03:35:00;;;;;;;28.67;13.73;;;;;;;;;;4998930;28;20046;-71
2023/12/13 03:37:28;;;;;;;27.92;14.10;;;;;;;;;;5002582;28;20116;-71
2023/12/13 03:39:54;;;;;;;24.75;13.68;;;;;;;;;;4986501;28;20118;-71
2023/12/13 03:42:20;;;;;;;27.75;13.77;;;;;;;;;;4987325;28;20049;-71
2023/12/13 03:44:46;;;;;;;24.15;13.77;;;;;;;;;;4988202;28;20053;-71
2023/12/13 03:47:12;;;;;;;29.77;14.18;;;;;;;;;;4986055;28;20052;-71
2023/12/13 03:49:38;;;;;;;24.23;12.38;;;;;;;;;;4988275;28;20053;-71
2023/12/13 03:52:07;;;;;;;23.70;13.70;;;;;;;;;;4987992;28;20108;-71
2023/12/13 03:54:33;;;;;;;24.45;14.07;;;;;;;;;;4988287;28;20046;-71
2023/12/13 03:56:59;;;;;;;24.52;13.82;;;;;;;;;;4987504;28;20128;-71
2023/12/13 03:59:25;;;;;;;24.77;13.63;;;;;;;;;;4986705;28;20046;-71
2023/12/13 04:01:51;;;;;;;24.45;14.05;;;;;;;;;;4984635;28;20133;-71
2023/12/13 04:04:17;;;;;;;25.90;14.27;;;;;;;;;;5004135;28;20069;-71
2023/12/13 04:06:43;;;;;;;28.00;14.77;;;;;;;;;;5004208;28;20172;-71
2023/12/13 04:09:09;;;;;;;26.17;14.32;;;8.40;99.90;;;;;;4986880;28;20454;-71
2023/12/13 04:11:35;;;;;;;22.17;13.35;;;;;;;;;;4984575;28;20056;-71
2023/12/13 04:14:01;;;;;;;26.48;13.77;;;;;;;;;;4987808;28;20057;-71
2023/12/13 04:16:27;;;;;;;23.17;12.85;;;;;;;;;;4986592;28;20046;-71
2023/12/13 04:18:53;;;;;;;28.95;15.88;;;;;;;;;;4980981;28;20057;-71
2023/12/13 04:21:19;;;;;;;25.83;14.23;;;;;;;;;;4987741;28;20373;-71
2023/12/13 04:23:45;;;;;;;25.83;14.23;;;;;;;;;;5003313;28;20111;-71
2023/12/13 04:26:11;;;;;;;30.70;14.75;;;;;;;;;;4988054;28;20050;-71
2023/12/13 04:28:37;;;;;;;25.75;14.73;;;;;;;;;;4987994;28;20042;-71
2023/12/13 04:31:03;;;;;;;24.75;14.30;;;;;;;;;;4988198;28;20061;-71
2023/12/13 04:33:31;;;;;;;29.50;15.48;;;;;;;;;;4988161;28;20041;-71
2023/12/13 04:35:59;;;;;;;24.50;13.52;;;;;;;;;;4983319;28;20054;-70
2023/12/13 04:38:25;;;;;;;30.15;15.23;;;;;;;;;;5000968;28;20073;-71
2023/12/13 04:40:51;;;;;;;28.85;15.27;;;;;;;;;;4988233;28;20484;-71
2023/12/13 04:43:17;;;;;;;22.48;13.27;;;;;;;;;;4988193;28;20059;-71
2023/12/13 04:45:42;;;;;;;25.20;14.40;;;;;;;;;;4987687;28;20046;-71
2023/12/13 04:48:08;;;;;;;29.02;16.15;;;;;;;;;;5005309;28;20056;-71
2023/12/13 04:50:35;;;;;;;26.17;15.32;;;;;;;;;;4987325;28;20053;-71
2023/12/13 04:53:02;;;;;;;25.20;14.10;;;;;;;;;;4988067;28;20041;-71
2023/12/13 04:55:28;;;;;;;28.42;15.30;;;;;;;;;;4988010;28;20053;-71
2023/12/13 04:57:54;;;;;;;28.35;15.93;;;;;;;;;;4986318;28;20045;-71
2023/12/13 05:00:20;;;;;;;28.58;16.10;;;;;;;;;;4988135;28;20052;-71
2023/12/13 05:02:46;;;;;;;31.10;15.90;;;;;;;;;;4987057;28;20230;-71
2023/12/13 05:05:12;;;;;;;29.88;14.95;;;;;;;;;;4985094;28;20057;-71
2023/12/13 05:07:38;;;;;;;26.98;15.25;;;;;;;;;;4985375;28;20134;-71
2023/12/13 05:10:04;;;;;;;26.77;15.38;;;;;;;;;;4977326;28;20125;-71
2023/12/13 05:12:30;;;;;;;27.30;15.13;;;;;;;;;;4965885;28;20046;-71
2023/12/13 05:14:56;;;;;;;30.25;16.05;;;;;;;;;;5004122;28;20057;-71
2023/12/13 05:17:22;;;;;;;27.75;15.75;;;;;;;;;;5004006;28;20405;-71
2023/12/13 05:19:48;;;;;;;29.25;15.40;;;;;;;;;;4986033;28;20042;-71
2023/12/13 05:22:14;;;;;;;29.70;15.98;;;;;;;;;;4982201;28;20046;-71
2023/12/13 05:24:40;;;;;;;31.83;15.98;;;;;;;;;;4986759;28;20045;-71
2023/12/13 05:27:06;;;;;;;35.08;17.15;;;;;;;;;;5002110;28;20046;-71
2023/12/13 05:29:33;;;;;;;36.30;17.70;;;8.20;99.90;;;;;;4986467;28;20042;-71
2023/12/13 05:31:59;;;;;;;29.45;16.63;;;;;;;;;;5004117;28;20461;-71
2023/12/13 05:34:25;;;;;;;32.45;17.88;;;;;;;;;;4986270;28;20050;-71
2023/12/13 05:36:51;;;;;;;28.42;15.68;;;;;;;;;;4977991;28;20054;-71
2023/12/13 05:39:17;;;;;;;30.58;16.80;;;;;;;;;;4986831;28;20049;-71
2023/12/13 05:41:43;;;;;;;28.83;16.08;;;8.30;99.90;;;;;;4986465;28;20069;-71
2023/12/13 05:44:09;;;;;;;32.58;17.23;;;;;;;;;;4985882;28;20756;-70
2023/12/13 05:46:35;;;;;;;30.52;17.00;;;;;;;;;;4986769;28;20171;-71
2023/12/13 05:49:03;;;;;;;31.55;17.52;;;;;;;;;;4984594;28;20045;-71
2023/12/13 05:51:29;;;;;;;31.52;16.17;;;;;;;;;;4986303;28;20099;-70
2023/12/13 05:53:56;;;;;;;35.13;17.77;;;;;;;;;;4986659;28;20053;-70
2023/12/13 05:56:22;;;;;;;30.52;16.95;;;;;;;;;;4986208;28;20087;-70
2023/12/13 05:58:48;;;;;;;36.88;17.13;;;;;;;;;;4986463;28;20157;-71
2023/12/13 06:01:14;;;;;;;33.30;17.00;;;;;;;;;;4985680;28;20061;-71
2023/12/13 06:03:41;;;;;;;34.78;17.45;;;;;;;;;;4985798;28;20107;-71
2023/12/13 06:06:07;;;;;;;33.92;18.15;;;;;;;;;;4985515;28;20049;-70
2023/12/13 06:08:33;;;;;;;29.65;17.95;;;;;;;;;;4985783;28;20046;-71
2023/12/13 06:10:59;;;;;;;39.20;18.55;;;;;;;;;;4985866;28;20049;-70
2023/12/13 06:13:25;;;;;;;39.33;19.15;;;;;;;;;;4985740;28;20495;-71
2023/12/13 06:15:51;;;;;;;33.70;18.17;;;;;;;;;;4985151;28;20049;-71
2023/12/13 06:18:17;;;;;;;31.98;17.63;;;;;;;;;;4985303;28;20042;-71
2023/12/13 06:20:43;;;;;;;36.65;17.90;;;;;;;;;;5003460;28;20041;-71
2023/12/13 06:23:09;;;;;;;36.83;17.70;;;;;;;;;;4985352;28;20485;-71
2023/12/13 06:25:35;;;;;;;37.22;18.40;;;;;;;;;;4985287;28;20586;-71
2023/12/13 06:28:01;;;;;;;34.53;19.17;;;;;;;;;;4982069;28;20616;-71
2023/12/13 06:30:27;;;;;;;41.50;20.17;;;;;;;;;;4984848;28;20041;-70
2023/12/13 06:32:53;;;;;;;31.98;18.75;;;;;;;;;;4985141;28;20091;-71
2023/12/13 06:35:19;;;;;;;29.75;17.88;;;;;;;;;;4968084;28;20045;-71
2023/12/13 06:37:45;;;;;;;36.05;18.15;;;;;;;;;;4985115;28;20055;-70
2023/12/13 06:40:14;;;;;;;36.53;18.20;;;;;;;;;;4996104;28;20049;-70
2023/12/13 06:42:40;;;;;;;32.65;17.23;;;;;;;;;;4982059;28;20798;-70
2023/12/13 06:45:06;;;;;;;30.38;16.80;;;;;;;;;;4984987;28;20050;-70
2023/12/13 06:47:32;;;;;;;29.70;14.73;;;;;;;;;;5002772;28;20147;-72
2023/12/13 06:49:58;;;;;;;37.42;17.00;;;;;;;;;;4981159;28;20681;-70
2023/12/13 06:52:25;;;;;;;35.95;19.00;;;;;;;;;;4983079;28;20050;-71
2023/12/13 06:54:51;;;;;;;34.15;18.35;;;;;;;;;;4983423;28;20037;-71
2023/12/13 06:57:17;;;;;;;31.23;17.52;;;;;;;;;;4999132;28;20057;-71
2023/12/13 06:59:43;;;;;;;33.83;17.83;;;;;;;;;;4980869;28;20073;-71
2023/12/13 07:02:09;;;;;;;34.88;18.83;;;;;;;;;;5000979;28;20650;-71
2023/12/13 07:04:35;;;;;;;34.85;18.52;;;;;;;;;;4982186;28;20397;-71
2023/12/13 07:07:01;;;;;;;32.33;18.17;;;;;;;;;;4983957;28;20050;-71
2023/12/13 07:09:27;;;;;;;37.63;18.92;;;;;;;;;;5001951;28;20050;-70
2023/12/13 07:11:53;;;;;;;37.38;20.13;;;;;;;;;;5001975;28;20040;-71
2023/12/13 07:14:19;;;;;;;34.92;18.30;;;;;;;;;;5002299;28;20898;-71
2023/12/13 07:16:45;;;;;;;49.65;21.25;;;;;;;;;;4985024;28;20074;-71
2023/12/13 07:19:11;;;;;;;39.40;20.52;;;;;;;;;;5000630;28;20045;-71
2023/12/13 07:21:37;;;;;;;36.72;19.75;;;;;;;;;;4984704;28;20116;-71
2023/12/13 07:24:04;;;;;;;38.17;18.75;;;;;;;;;;4984481;28;20128;-71
2023/12/13 07:26:30;;;;;;;44.45;20.75;;;;;;;;;;4984185;28;20049;-71
2023/12/13 07:28:56;;;;;;;42.72;20.08;;;;;;;;;;4982825;28;20050;-71
2023/12/13 07:31:23;;;;;;;36.92;19.70;;;;;;;;;;4983830;28;20453;-71
2023/12/13 07:33:49;;;;;;;36.35;19.92;;;;;;;;;;4984259;28;20037;-71
2023/12/13 07:36:15;;;;;;;42.33;20.92;;;;;;;;;;4983950;28;20398;-71
2023/12/13 07:38:41;;;;;;;35.58;18.45;;;;;;;;;;4984805;28;20126;-71
2023/12/13 07:41:08;;;;;;;38.88;20.85;;;;;;;;;;4984341;28;20053;-71
2023/12/13 07:43:34;;;;;;;45.28;21.48;;;;;;;;;;4984294;28;20041;-71
2023/12/13 07:46:00;;;;;;;35.05;19.08;;;;;;;;;;4984400;28;20054;-71
2023/12/13 07:48:26;;;;;;;43.75;20.27;;;;;;;;;;5001377;28;20160;-71
2023/12/13 07:50:53;;;;;;;39.35;20.50;;;;;;;;;;4984155;28;20431;-69
2023/12/13 07:53:19;;;;;;;39.67;20.70;;;;;;;;;;4999035;28;20045;-70
2023/12/13 07:55:46;;;;;;;35.95;19.95;;;;;;;;;;4984736;28;20053;-70
2023/12/13 07:58:12;;;;;;;38.75;19.27;;;;;;;;;;4984151;28;20799;-71
2023/12/13 08:00:38;;;;;;;42.08;20.02;;;;;;;;;;4984555;28;20046;-71
2023/12/13 08:03:04;;;;;;;37.63;20.88;;;;;;;;;;4984147;28;20054;-71
2023/12/13 08:05:30;;;;;;;40.58;20.30;;;;;;;;;;4984548;28;20069;-71
2023/12/13 08:07:56;;;;;;;41.63;19.90;;;;;;;;;;4999980;28;20433;-71
2023/12/13 08:10:22;;;;;;;38.42;19.10;;;;;;;;;;5001255;28;20481;-71
2023/12/13 08:12:48;;;;;;;40.05;19.35;;;;;;;;;;4984421;28;20100;-71
2023/12/13 08:15:14;;;;;;;40.83;20.33;;;;;;;;;;4983281;28;20065;-71
2023/12/13 08:17:40;;;;;;;41.65;20.65;;;;;;;;;;4984721;28;20550;-71
2023/12/13 08:20:07;;;;;;;39.38;21.60;;;;;;;;;;5000234;28;20046;-71
2023/12/13 08:22:33;;;;;;;45.30;20.90;;;;;;;;;;4983300;28;20037;-72
2023/12/13 08:24:59;;;;;;;45.80;20.08;;;;;;;;;;4985140;28;20489;-71
2023/12/13 08:27:25;;;;;;;45.83;20.95;;;;;;;;;;5006232;28;20045;-69
2023/12/13 08:29:52;;;;;;;44.33;22.30;;;;;;;;;;5006303;28;20034;-72
2023/12/13 08:32:18;;;;;;;43.33;20.77;;;;;;;;;;4987541;28;20050;-71
2023/12/13 08:34:44;;;;;;;40.33;20.52;;;;;;;;;;4987308;28;20485;-72
2023/12/13 08:37:10;;;;;;;42.40;19.60;;;;;;;;;;4987443;28;20046;-71
2023/12/13 08:39:36;;;;;;;41.75;20.90;;;;;;;;;;4998741;28;20073;-71
2023/12/13 08:42:03;;;;;;;45.72;20.67;;;;;;;;;;4987292;28;20536;-72
2023/12/13 08:44:29;;;;;;;44.28;21.98;;;;;;;;;;4987703;28;20389;-71
2023/12/13 08:46:56;;;;;;;44.30;20.70;;;;;;;;;;5004768;28;20054;-72
2023/12/13 08:49:22;;;;;;;40.00;20.15;;;;;;;;;;4987198;28;20042;-72
2023/12/13 08:51:48;;;;;;;42.80;21.58;;;;;;;;;;4967393;28;20121;-71
2023/12/13 08:54:14;;;;;;;45.50;20.27;;;;;;;;;;5003461;28;20756;-72
2023/12/13 08:56:41;;;;;;;42.22;20.88;;;;;;;;;;4986890;28;20045;-72
2023/12/13 08:59:07;;;;;;;39.28;20.73;;;;;;;;;;5004856;28;20073;-72
2023/12/13 09:01:33;;;;;;;42.67;19.92;;;;;;;;;;4985684;28;20492;-72
2023/12/13 09:03:59;;;;;;;45.95;22.30;;;;;;;;;;4986696;28;20053;-72
2023/12/13 09:06:25;;;;;;;40.55;20.42;;;;;;;;;;5004344;28;20165;-72
2023/12/13 09:08:51;;;;;;;42.08;20.38;;;;;;;;;;4983030;28;20046;-72
2023/12/13 09:11:18;;;;;;;40.25;20.15;;;;;;;;;;5004702;28;20053;-72
2023/12/13 09:13:44;;;;;;;38.88;21.00;;;;;;;;;;4986492;28;20412;-72
2023/12/13 09:16:10;;;;;;;41.88;20.42;;;;;;;;;;4983842;28;20119;-72
2023/12/13 09:18:36;;;;;;;35.85;19.88;;;;;;;;;;4986649;28;20809;-72
2023/12/13 09:21:03;;;;;;;40.90;21.48;;;;;;;;;;5003785;28;20128;-72
2023/12/13 09:23:29;;;;;;;38.97;19.60;;;;;;;;;;4982273;28;20046;-72
2023/12/13 09:25:56;;;;;;;41.55;21.13;;;;;;;;;;4986346;28;20378;-72
2023/12/13 09:28:22;;;;;;;39.67;20.20;;;;;;;;;;4984027;28;20042;-72
2023/12/13 09:30:48;;;;;;;39.30;19.10;;;;;;;;;;4985881;28;20104;-72
2023/12/13 09:33:14;;;;;;;43.35;22.05;;;;;;;;;;4981379;28;20046;-72
2023/12/13 09:35:41;;;;;;;44.65;19.48;;;;;;;;;;4986185;28;20045;-72
2023/12/13 09:38:07;;;;;;;41.15;19.90;;;;;;;;;;4986946;28;20054;-72
2023/12/13 09:40:33;;;;;;;39.22;20.88;;;;;;;;;;4986633;28;20064;-72
2023/12/13 09:43:00;;;;;;;43.53;20.58;;;;;;;;;;4986370;28;20385;-72
2023/12/13 09:45:27;;;;;;;43.90;21.63;;;;;;;;;;4986089;28;20057;-72
2023/12/13 09:47:53;;;;;;;38.85;19.83;;;;;;;;;;4986292;28;20674;-72
2023/12/13 09:50:19;;;;;;;36.75;18.77;;;;;;;;;;4986653;28;20046;-72
2023/12/13 09:52:47;;;;;;;40.53;20.05;;;;;;;;;;4984803;28;20155;-72
2023/12/13 09:55:15;;;;;;;39.45;19.98;;;;;;;;;;4980676;28;20131;-72
2023/12/13 09:57:41;;;;;;;40.28;19.95;;;;;;;;;;4984313;28;20041;-72
2023/12/13 10:00:07;;;;;;;43.38;20.38;;;;;;;;;;4970038;28;20464;-72
2023/12/13 10:02:33;;;;;;;45.30;22.23;;;;;;;;;;4986167;28;20053;-72
2023/12/13 10:04:59;;;;;;;41.05;20.23;;;;;;;;;;5003183;28;20077;-73
2023/12/13 10:07:27;;;;;;;45.55;22.48;;;;;;;;;;4985691;28;20057;-72
2023/12/13 10:09:55;;;;;;;40.88;19.95;;;;;;;;;;4985456;28;20049;-72
2023/12/13 10:12:21;;;;;;;40.85;20.00;;;;;;;;;;4968705;28;20053;-72
2023/12/13 10:14:47;;;;;;;49.15;23.23;;;;;;;;;;5003264;28;20049;-72
2023/12/13 10:17:13;;;;;;;47.50;20.90;;;;;;;;;;4984325;28;20046;-72
2023/12/13 10:19:40;;;;;;;46.95;21.88;;;;;;;;;;5001926;28;20103;-72
2023/12/13 10:22:06;;;;;;;44.63;21.60;;;;;;;;;;4981198;28;20053;-71
2023/12/13 10:24:32;;;;;;;48.85;20.95;;;;;;;;;;4985467;28;20048;-72
2023/12/13 10:26:58;;;;;;;48.15;22.13;;;;;;;;;;4985526;28;20050;-71
2023/12/13 10:29:24;;;;;;;43.03;20.13;;;;;;;;;;4968542;28;20052;-72
2023/12/13 10:31:50;;;;;;;46.85;20.98;;;;;;;;;;4983846;28;20085;-71
2023/12/13 10:34:17;;;;;;;46.10;20.02;;;;;;;;;;5005878;28;20128;-71
2023/12/13 10:36:43;;;;;;;48.97;21.05;;;;;;;;;;4985806;28;20049;-71
2023/12/13 10:39:11;;;;;;;53.72;22.17;;;;;;;;;;4981610;28;20501;-71
2023/12/13 10:41:37;;;;;;;47.60;22.20;;;;;;;;;;4983743;28;20050;-71
2023/12/13 10:44:04;;;;;;;55.20;22.90;;;;;;;;;;4984987;28;20058;-71
2023/12/13 10:46:40;;;;;;;48.65;19.80;;;;;;;;;;4984646;28;20586;-71
2023/12/13 10:49:07;;;;;;;52.85;22.83;;;;;;;;;;4986659;28;20170;-71
2023/12/13 10:51:33;;;;;;;47.55;21.73;;;;;;;;;;4984507;28;20049;-71
2023/12/13 10:53:59;;;;;;;43.28;22.02;;;;;;;;;;4984240;28;20042;-71
2023/12/13 10:56:25;;;;;;;49.90;22.83;;;;;;;;;;4985474;28;20103;-71
2023/12/13 10:58:53;;;;;;;47.22;22.27;;;;;;;;;;4985126;28;20045;-71
2023/12/13 11:01:19;;;;;;;41.58;19.65;;;;;;;;;;4985701;28;20069;-71
2023/12/13 11:03:45;;;;;;;47.35;20.45;;;;;;;;;;5003245;28;20096;-71
2023/12/13 11:06:15;;;;;;;47.47;20.98;;;;;;;;;;4983967;28;20813;-72
2023/12/13 11:08:45;;;;;;;48.45;22.85;;;;;;;;;;4996019;28;20888;-71
2023/12/13 11:11:13;;;;;;;46.22;22.35;;;;;;;;;;4985004;28;20045;-71
2023/12/13 11:13:52;;;;;;;47.33;21.60;;;;;;;;;;4984771;28;20038;-71
2023/12/13 11:16:23;;;;;;;44.08;22.15;;;;;;;;;;4984506;28;20417;-71
2023/12/13 11:18:56;;;;;;;47.05;22.98;;;8.80;99.90;;;;;;4979022;28;20156;-71
2023/12/13 11:21:26;;;;;;;38.30;20.70;;;;;;;;;;4982174;28;20060;-71
2023/12/13 11:23:58;;;;;;;49.58;21.95;;;;;;;;;;4984304;28;20564;-71
2023/12/13 11:26:26;;;;;;;45.90;21.02;;;;;;;;;;4983132;28;20042;-71
2023/12/13 11:28:54;;;;;;;39.67;21.80;;;;;;;;;;4984865;28;20401;-71
2023/12/13 11:31:24;;;;;;;43.15;22.08;;;;;;;;;;5000359;28;20045;-71
2023/12/13 11:33:50;;;;;;;39.08;20.77;;;;;;;;;;5001813;28;20100;-71
2023/12/13 11:36:23;;;;;;;45.70;21.58;;;;;;;;;;4984587;28;20381;-71
2023/12/13 11:38:50;;;;;;;44.72;21.88;;;;;;;;;;5000372;28;20515;-71
2023/12/13 11:41:17;;;;;;;45.08;22.15;;;;;;;;;;4984817;28;20129;-71
2023/12/13 11:43:43;;;;;;;38.30;20.55;;;;;;;;;;4982635;28;20068;-72
2023/12/13 11:46:09;;;;;;;44.92;21.35;;;9.10;99.90;;;;;;4983689;28;20056;-72
2023/12/13 11:48:36;;;;;;;42.05;20.73;;;;;;;;;;4983030;28;20167;-72
2023/12/13 11:51:02;;;;;;;43.78;21.48;;;;;;;;;;4983970;28;20400;-72
2023/12/13 11:53:28;;;;;;;39.65;21.33;;;;;;;;;;5003059;28;20100;-72
2023/12/13 11:55:54;;;;;;;47.78;20.73;;;;;;;;;;4984326;28;20053;-72
2023/12/13 11:58:20;;;;;;;45.47;21.33;;;;;;;;;;5001209;28;20492;-72
2023/12/13 12:00:46;;;;;;;41.90;20.77;;;;;;;;;;4984567;28;20188;-72
2023/12/13 12:03:12;;;;;;;42.75;20.05;;;;;;;;;;4988374;28;20045;-72
2023/12/13 12:05:41;;;;;;;51.28;21.85;;;;;;;;;;4988202;28;20042;-72
2023/12/13 12:08:07;;;;;;;42.05;21.90;;;;;;;;;;4988332;28;20124;-72
2023/12/13 12:10:34;;;;;;;47.95;21.90;;;;;;;;;;4988266;28;20452;-72
2023/12/13 12:13:01;;;;;;;47.13;22.77;;;;;;;;;;4987977;28;20041;-72
2023/12/13 12:15:27;;;;;;;39.88;20.50;;;;;;;;;;4987673;28;20066;-72
2023/12/13 12:17:57;;;;;;;45.30;21.83;;;;;;;;;;4982221;28;20042;-71
2023/12/13 12:20:27;;;;;;;42.92;21.98;;;;;;;;;;5003973;28;20759;-72
2023/12/13 12:22:53;;;;;;;46.28;21.83;;;;;;;;;;4983677;28;20045;-72
2023/12/13 12:25:20;;;;;;;47.47;21.58;;;;;;;;;;4984812;28;20068;-72
2023/12/13 12:27:49;;;;;;;43.53;20.85;;;;;;;;;;5005259;28;20053;-73
2023/12/13 12:30:21;;;;;;;41.67;21.45;;;;;;;;;;4985987;28;20050;-71
2023/12/13 12:32:48;;;;;;;46.83;21.85;;;;;;;;;;4985093;28;20777;-72
2023/12/13 12:35:14;;;;;;;39.60;21.27;;;;;;;;;;4981574;28;20576;-71
2023/12/13 12:37:40;;;;;;;53.38;22.65;;;;;;;;;;5001054;28;20050;-72
2023/12/13 12:40:08;;;;;;;46.60;21.67;;;;;;;;;;4987950;28;20057;-70
2023/12/13 12:42:34;;;;;;;55.72;23.38;;;;;;;;;;4985023;28;20358;-71
2023/12/13 12:45:00;;;;;;;52.80;23.23;;;;;;;;;;4991701;28;20606;-72
2023/12/13 12:47:26;;;;;;;44.28;21.30;;;;;;;;;;4987554;28;20723;-71
2023/12/13 12:49:52;;;;;;;45.92;23.13;;;;;;;;;;4971577;28;20578;-71
2023/12/13 12:52:22;;;;;;;40.95;21.42;;;;;;;;;;4988742;28;20088;-71
2023/12/13 12:54:49;;;;;;;48.72;21.55;;;;;;;;;;4990954;28;20037;-70
2023/12/13 12:57:15;;;;;;;44.88;20.23;;;;;;;;;;4987678;28;20064;-71
2023/12/13 12:59:41;;;;;;;41.72;20.33;;;;;;;;;;5005652;28;20042;-70
2023/12/13 13:02:09;;;;;;;51.00;19.98;;;;;;;;;;4989114;28;20480;-71
2023/12/13 13:04:36;;;;;;;46.05;20.50;;;;;;;;;;4985520;28;20073;-70
2023/12/13 13:07:03;;;;;;;39.55;19.70;;;;;;;;;;4986625;28;20100;-70
2023/12/13 13:09:29;;;;;;;46.80;20.80;;;;;;;;;;4987066;28;20049;-71
2023/12/13 13:11:55;;;;;;;44.80;20.52;;;;;;;;;;4987698;28;20046;-70
2023/12/13 13:14:24;;;;;;;42.80;20.80;;;;;;;;;;4983109;28;20054;-70
2023/12/13 13:16:51;;;;;;;44.38;20.65;;;;;;;;;;4986331;28;20068;-70
2023/12/13 13:19:17;;;;;;;46.10;21.13;;;;;;;;;;4982101;28;20054;-69
2023/12/13 13:21:43;;;;;;;42.05;20.83;;;;;;;;;;4986045;28;20042;-70
2023/12/13 13:24:09;;;;;;;39.75;20.92;;;;;;;;;;4986573;28;20073;-70
2023/12/13 13:26:36;;;;;;;40.72;19.85;;;;;;;;;;4980879;28;20054;-70
2023/12/13 13:29:02;;;;;;;39.00;19.60;;;;;;;;;;4989561;28;20057;-70
2023/12/13 13:31:28;;;;;;;39.80;19.63;;;;;;;;;;5004617;28;20127;-70
2023/12/13 13:33:55;;;;;;;37.08;20.13;;;;;;;;;;4985862;28;21282;-68
2023/12/13 13:36:21;;;;;;;38.30;21.13;;;;;;;;;;4987360;28;20045;-70
2023/12/13 13:38:47;;;;;;;38.85;19.85;;;;;;;;;;4968332;28;20105;-70
2023/12/13 13:41:14;;;;;;;44.30;21.15;;;;;;;;;;4987657;28;20045;-70
2023/12/13 13:43:41;;;;;;;42.25;21.40;;;;;;;;;;4986791;28;20151;-69
2023/12/13 13:46:07;;;;;;;42.63;22.27;;;;;;;;;;4990363;28;20111;-70
2023/12/13 13:48:33;;;;;;;45.90;21.83;;;;;;;;;;4987011;28;20053;-70
2023/12/13 13:51:00;;;;;;;51.97;22.15;;;;;;;;;;4986487;28;20046;-70
2023/12/13 13:53:26;;;;;;;55.28;21.63;;;;;;;;;;4986665;28;20408;-70
2023/12/13 13:55:53;;;;;;;53.10;21.88;;;;;;;;;;4984843;28;20061;-70
2023/12/13 13:58:19;;;;;;;53.25;22.38;;;;;;;;;;4985903;28;20072;-69
2023/12/13 14:00:45;;;;;;;52.00;23.10;;;;;;;;;;4985424;28;20050;-70
2023/12/13 14:03:12;;;;;;;65.53;21.70;;;;;;;;;;5004198;28;20115;-70
2023/12/13 14:05:38;;;;;;;59.95;22.58;;;;;;;;;;4985938;28;20485;-70
2023/12/13 14:08:06;;;;;;;52.97;22.40;;;;;;;;;;4983768;28;20705;-70